createdAt,value
2022-09-21T00:01:09.434Z,10.50
2022-09-21T00:03:37.766Z,10.55
2022-09-21T00:06:08.860Z,10.61
2022-09-21T00:08:37.034Z,10.58
2022-09-21T00:11:05.788Z,10.57
2022-09-21T00:13:35.083Z,10.57
2022-09-21T00:16:07.087Z,10.58
2022-09-21T00:18:36.192Z,10.51
2022-09-21T00:21:10.008Z,10.55
2022-09-21T00:23:38.216Z,10.65
2022-09-21T00:26:08.563Z,10.68
2022-09-21T00:28:36.697Z,10.46
2022-09-21T00:31:05.738Z,10.45
2022-09-21T00:33:34.009Z,10.40
2022-09-21T00:36:06.049Z,10.10
2022-09-21T00:38:36.422Z,9.93
2022-09-21T00:41:05.581Z,10.06
2022-09-21T00:43:35.808Z,10.28
2022-09-21T00:46:06.548Z,10.43
2022-09-21T00:48:35.169Z,10.44
2022-09-21T00:51:06.222Z,10.32
2022-09-21T00:53:35.894Z,10.44
2022-09-21T00:56:04.192Z,10.47
2022-09-21T00:58:38.199Z,10.55
2022-09-21T01:01:06.205Z,10.58
2022-09-21T01:03:34.392Z,10.45
2022-09-21T01:06:02.415Z,10.46
2022-09-21T01:08:30.811Z,10.12
2022-09-21T01:11:20.365Z,10.10
2022-09-21T01:13:59.792Z,10.08
2022-09-21T01:16:33.134Z,9.87
2022-09-21T01:19:12.952Z,10.03
2022-09-21T01:21:53.089Z,9.74
2022-09-21T01:24:50.359Z,9.68
2022-09-21T01:27:52.654Z,9.56
2022-09-21T01:30:23.691Z,9.67
2022-09-21T01:32:59.265Z,9.60
2022-09-21T01:35:32.147Z,9.62
2022-09-21T01:38:04.240Z,9.41
2022-09-21T01:40:36.034Z,9.26
2022-09-21T01:43:06.435Z,9.13
2022-09-21T01:45:40.322Z,9.07
2022-09-21T01:48:09.189Z,9.07
2022-09-21T01:50:41.398Z,9.00
2022-09-21T01:53:13.959Z,9.02
2022-09-21T01:55:46.845Z,8.89
2022-09-21T01:58:20.285Z,8.88
2022-09-21T02:00:53.818Z,8.98
2022-09-21T02:03:26.139Z,8.82
2022-09-21T02:05:54.796Z,8.91
2022-09-21T02:08:22.832Z,8.99
2022-09-21T02:10:52.615Z,9.20
2022-09-21T02:13:25.380Z,9.45
2022-09-21T02:16:10.816Z,9.29
2022-09-21T02:18:48.446Z,9.18
2022-09-21T02:21:25.553Z,9.27
2022-09-21T02:24:04.124Z,9.18
2022-09-21T02:26:37.372Z,9.27
2022-09-21T02:29:17.227Z,9.08
2022-09-21T02:31:53.530Z,9.20
2022-09-21T02:34:29.569Z,9.09
2022-09-21T02:37:04.131Z,8.97
2022-09-21T02:39:36.293Z,8.97
2022-09-21T02:42:11.049Z,9.20
2022-09-21T02:44:43.727Z,9.04
2022-09-21T02:47:18.864Z,9.06
2022-09-21T02:49:51.361Z,8.89
2022-09-21T02:52:20.648Z,8.88
2022-09-21T02:54:51.504Z,8.96
2022-09-21T02:57:21.591Z,8.92
2022-09-21T02:59:49.963Z,8.79
2022-09-21T03:02:19.137Z,8.89
2022-09-21T03:04:50.014Z,9.06
2022-09-21T03:07:18.342Z,8.82
2022-09-21T03:09:46.599Z,8.90
2022-09-21T03:12:14.548Z,9.07
2022-09-21T03:14:42.602Z,9.03
2022-09-21T03:17:10.428Z,9.20
2022-09-21T03:19:39.634Z,9.32
2022-09-21T03:22:07.556Z,9.26
2022-09-21T03:24:47.553Z,9.26
2022-09-21T03:27:16.190Z,9.32
2022-09-21T03:29:44.339Z,9.56
2022-09-21T03:32:13.886Z,9.64
2022-09-21T03:34:43.511Z,9.83
2022-09-21T03:37:12.533Z,9.85
2022-09-21T03:39:40.309Z,9.86
2022-09-21T03:42:09.945Z,9.75
2022-09-21T03:44:38.325Z,9.91
2022-09-21T03:47:06.724Z,9.95
2022-09-21T03:49:35.048Z,9.79
2022-09-21T03:52:04.699Z,9.78
2022-09-21T03:54:32.501Z,9.86
2022-09-21T03:57:00.394Z,9.76
2022-09-21T03:59:28.211Z,9.73
2022-09-21T04:01:56.004Z,9.75
2022-09-21T04:04:23.955Z,9.72
2022-09-21T04:06:52.020Z,9.66
2022-09-21T04:09:21.197Z,9.63
2022-09-21T04:11:49.220Z,9.67
2022-09-21T04:14:17.654Z,9.57
2022-09-21T04:16:45.509Z,9.65
2022-09-21T04:19:13.573Z,9.41
2022-09-21T04:21:41.389Z,9.49
2022-09-21T04:24:09.256Z,9.43
2022-09-21T04:26:40.786Z,9.29
2022-09-21T04:29:08.639Z,9.47
2022-09-21T04:31:36.620Z,9.51
2022-09-21T04:34:04.834Z,9.54
2022-09-21T04:36:36.473Z,9.69
2022-09-21T04:39:05.304Z,9.68
2022-09-21T04:41:33.181Z,9.54
2022-09-21T04:44:02.895Z,9.70
2022-09-21T04:46:30.891Z,9.88
2022-09-21T04:48:58.841Z,9.84
2022-09-21T04:51:27.006Z,9.84
2022-09-21T04:53:54.866Z,9.84
2022-09-21T04:56:22.792Z,9.84
2022-09-21T04:58:50.671Z,9.88
2022-09-21T05:01:19.981Z,9.83
2022-09-21T05:03:48.040Z,9.63
2022-09-21T05:06:16.129Z,9.86
2022-09-21T05:09:01.839Z,9.59
2022-09-21T05:11:29.982Z,9.69
2022-09-21T05:13:57.907Z,9.68
2022-09-21T05:16:27.145Z,10.02
2022-09-21T05:18:55.873Z,10.05
2022-09-21T05:21:24.066Z,9.86
2022-09-21T05:23:52.399Z,10.05
2022-09-21T05:26:20.318Z,9.90
2022-09-21T05:28:48.699Z,9.82
2022-09-21T05:31:46.873Z,10.13
2022-09-21T05:34:31.890Z,10.20
2022-09-21T05:37:08.615Z,10.16
2022-09-21T05:39:37.360Z,10.06
2022-09-21T05:42:06.463Z,10.18
2022-09-21T05:44:34.733Z,10.30
2022-09-21T05:47:15.473Z,10.45
2022-09-21T05:49:51.282Z,10.40
2022-09-21T05:52:26.587Z,10.60
2022-09-21T05:55:03.983Z,10.54
2022-09-21T05:57:42.169Z,10.69
2022-09-21T06:00:17.336Z,10.77
2022-09-21T06:03:05.787Z,10.66
2022-09-21T06:05:33.798Z,10.84
2022-09-21T06:08:01.739Z,10.83
2022-09-21T06:10:34.706Z,11.00
2022-09-21T06:13:02.760Z,10.83
2022-09-21T06:15:30.772Z,10.84
2022-09-21T06:18:00.278Z,10.98
2022-09-21T06:20:28.249Z,11.04
2022-09-21T06:23:01.857Z,10.86
2022-09-21T06:25:29.764Z,10.75
2022-09-21T06:28:02.308Z,10.96
2022-09-21T06:30:30.177Z,10.96
2022-09-21T06:33:02.507Z,10.73
2022-09-21T06:35:31.541Z,11.05
2022-09-21T06:38:00.444Z,11.23
2022-09-21T06:40:28.809Z,11.19
2022-09-21T06:42:58.285Z,11.17
2022-09-21T06:45:26.417Z,10.99
2022-09-21T06:47:54.591Z,11.38
2022-09-21T06:50:24.364Z,11.48
2022-09-21T06:52:52.336Z,11.21
2022-09-21T06:55:20.402Z,11.13
2022-09-21T06:57:48.326Z,11.31
2022-09-21T07:00:16.825Z,11.35
2022-09-21T07:02:45.668Z,11.65
2022-09-21T07:05:14.004Z,11.69
2022-09-21T07:07:43.291Z,11.46
2022-09-21T07:10:15.909Z,11.80
2022-09-21T07:12:46.540Z,12.05
2022-09-21T07:15:15.472Z,12.17
2022-09-21T07:17:51.564Z,12.36
2022-09-21T07:20:20.183Z,12.31
2022-09-21T07:22:49.664Z,12.57
2022-09-21T07:25:17.949Z,12.82
2022-09-21T07:27:47.694Z,12.58
2022-09-21T07:30:15.544Z,12.77
2022-09-21T07:32:43.714Z,12.44
2022-09-21T07:35:12.030Z,13.30
2022-09-21T07:37:40.149Z,14.35
2022-09-21T07:40:10.573Z,13.74
2022-09-21T07:42:38.479Z,13.15
2022-09-21T07:45:07.533Z,13.39
2022-09-21T07:47:35.539Z,12.96
2022-09-21T07:50:03.391Z,12.72
2022-09-21T07:52:33.155Z,12.60
2022-09-21T07:55:01.120Z,12.69
2022-09-21T07:57:47.781Z,13.13
2022-09-21T08:00:16.201Z,13.29
2022-09-21T08:02:47.612Z,13.37
2022-09-21T08:05:16.197Z,13.63
2022-09-21T08:07:44.272Z,13.12
2022-09-21T08:10:12.607Z,13.45
2022-09-21T08:12:43.894Z,13.75
2022-09-21T08:15:30.619Z,13.43
2022-09-21T08:18:01.325Z,14.33
2022-09-21T08:20:29.479Z,16.78
2022-09-21T08:22:57.684Z,17.60
2022-09-21T09:09:27.778Z,19.80
2022-09-21T09:12:16.443Z,18.19
2022-09-21T09:15:01.759Z,16.97
2022-09-21T09:17:40.339Z,16.33
2022-09-21T09:20:14.660Z,15.80
2022-09-21T09:22:47.419Z,16.14
2022-09-21T09:25:21.767Z,17.13
2022-09-21T09:27:53.771Z,18.28
2022-09-21T09:30:23.176Z,19.29
2022-09-21T09:32:57.123Z,18.36
2022-09-21T09:35:30.137Z,20.55
2022-09-21T09:38:03.823Z,21.74
2022-09-21T09:40:50.268Z,21.45
2022-09-21T09:43:32.459Z,22.54
2022-09-21T09:46:11.920Z,21.93
2022-09-21T09:48:56.138Z,24.13
2022-09-21T09:51:23.959Z,23.42
2022-09-21T09:53:52.592Z,22.24
2022-09-21T09:56:21.727Z,20.95
2022-09-21T09:58:54.307Z,20.30
2022-09-21T10:01:40.644Z,20.36
2022-09-21T10:04:11.980Z,19.13
2022-09-21T10:06:45.821Z,17.97
2022-09-21T10:09:30.976Z,18.45
2022-09-21T10:12:06.810Z,18.38
2022-09-21T10:14:37.558Z,18.76
2022-09-21T10:17:08.595Z,17.86
2022-09-21T10:19:38.145Z,17.51
2022-09-21T10:22:06.804Z,16.91
2022-09-21T10:24:38.935Z,16.16
2022-09-21T10:27:14.376Z,15.71
2022-09-21T10:29:43.532Z,15.82
2022-09-21T10:32:22.499Z,15.75
2022-09-21T10:35:15.915Z,15.98
2022-09-21T10:37:46.377Z,16.42
2022-09-21T10:40:27.814Z,16.23
2022-09-21T10:42:59.883Z,16.19
2022-09-21T10:45:29.803Z,16.71
2022-09-21T10:47:59.879Z,16.59
2022-09-21T10:50:30.355Z,16.93
2022-09-21T10:53:01.948Z,17.41
2022-09-21T10:55:32.135Z,17.32
2022-09-21T10:58:01.691Z,16.88
2022-09-21T11:00:41.373Z,17.09
2022-09-21T11:03:39.330Z,17.15
2022-09-21T11:06:12.679Z,17.51
2022-09-21T11:08:46.410Z,17.23
2022-09-21T11:11:33.530Z,17.77
2022-09-21T11:14:11.613Z,17.39
2022-09-21T11:16:44.817Z,17.86
2022-09-21T11:19:22.152Z,17.64
2022-09-21T11:21:56.401Z,18.00
2022-09-21T11:24:33.246Z,17.78
2022-09-21T11:27:07.414Z,17.82
2022-09-21T11:29:43.195Z,17.88
2022-09-21T11:32:34.792Z,17.35
2022-09-21T11:35:24.254Z,17.97
2022-09-21T11:38:05.243Z,17.85
2022-09-21T11:40:54.467Z,17.58
2022-09-21T11:43:39.924Z,17.34
2022-09-21T11:46:19.248Z,17.30
2022-09-21T11:49:01.284Z,17.06
2022-09-21T11:51:40.023Z,17.70
2022-09-21T11:54:23.158Z,17.40
2022-09-21T11:56:57.016Z,17.07
2022-09-21T11:59:42.616Z,17.26
2022-09-21T12:02:32.179Z,17.60
2022-09-21T12:05:08.085Z,17.98
2022-09-21T12:07:54.133Z,17.56
2022-09-21T12:10:40.310Z,16.95
2022-09-21T12:13:21.530Z,17.60
2022-09-21T12:15:57.943Z,18.45
2022-09-21T12:18:32.546Z,18.56
2022-09-21T12:21:06.718Z,18.87
2022-09-21T12:23:41.512Z,19.39
2022-09-21T12:26:11.529Z,18.79
2022-09-21T12:28:42.923Z,18.55
2022-09-21T12:31:39.088Z,17.86
2022-09-21T12:34:17.012Z,17.93
2022-09-21T12:36:49.577Z,18.03
2022-09-21T12:39:24.567Z,18.57
2022-09-21T12:41:57.446Z,19.11
2022-09-21T12:44:33.682Z,19.84
2022-09-21T12:47:10.121Z,19.24
2022-09-21T12:49:50.328Z,19.29
2022-09-21T12:52:24.374Z,20.11
2022-09-21T12:54:58.313Z,19.29
2022-09-21T13:00:31.276Z,18.38
2022-09-21T13:03:10.533Z,17.54
2022-09-21T13:05:53.048Z,17.71
2022-09-21T13:08:27.740Z,17.06
2022-09-21T13:11:04.692Z,16.86
2022-09-21T13:13:36.327Z,16.68
2022-09-21T13:16:06.506Z,16.69
2022-09-21T13:18:36.813Z,17.07
2022-09-21T13:21:19.107Z,17.02
2022-09-21T13:23:53.824Z,17.09
2022-09-21T13:26:32.654Z,17.35
2022-09-21T13:29:04.748Z,18.03
2022-09-21T13:31:57.579Z,17.17
2022-09-21T13:34:36.776Z,16.40
2022-09-21T13:37:36.153Z,14.74
2022-09-21T13:40:34.970Z,14.15
2022-09-21T13:43:26.003Z,13.76
2022-09-21T13:45:59.471Z,13.84
2022-09-21T13:48:30.380Z,14.09
2022-09-21T13:51:01.687Z,14.27
2022-09-21T13:53:40.011Z,14.48
2022-09-21T13:56:10.977Z,14.56
2022-09-21T13:58:45.989Z,15.22
2022-09-21T14:01:42.435Z,15.33
2022-09-21T14:04:19.675Z,15.69
2022-09-21T14:06:51.318Z,15.79
2022-09-21T14:09:25.701Z,16.06
2022-09-21T14:12:00.251Z,16.50
2022-09-21T14:14:32.092Z,16.42
2022-09-21T14:17:01.242Z,16.43
2022-09-21T14:20:07.140Z,16.52
2022-09-21T14:22:40.578Z,16.61
2022-09-21T14:25:27.653Z,16.75
2022-09-21T14:28:00.863Z,16.91
2022-09-21T14:30:33.436Z,17.03
2022-09-21T14:33:13.761Z,17.16
2022-09-21T14:35:47.391Z,17.01
2022-09-21T14:38:20.770Z,17.38
2022-09-21T14:40:52.097Z,17.73
2022-09-21T14:43:25.274Z,17.56
2022-09-21T14:46:16.832Z,17.70
2022-09-21T14:48:55.359Z,17.49
2022-09-21T14:51:38.204Z,16.97
2022-09-21T14:54:26.448Z,16.94
2022-09-21T14:57:10.980Z,17.15
2022-09-21T14:59:52.904Z,17.21
2022-09-21T15:02:23.605Z,17.00
2022-09-21T15:05:01.982Z,16.62
2022-09-21T15:07:57.137Z,16.39
2022-09-21T15:10:54.986Z,15.78
2022-09-21T15:14:13.434Z,15.54
2022-09-21T15:16:43.997Z,16.02
2022-09-21T15:19:21.540Z,16.16
2022-09-21T15:21:51.278Z,15.93
2022-09-21T15:24:27.028Z,15.93
2022-09-21T15:27:03.641Z,15.77
2022-09-21T15:29:34.781Z,15.55
2022-09-21T15:32:04.065Z,15.58
2022-09-21T15:34:32.286Z,15.82
2022-09-21T15:37:16.574Z,16.02
2022-09-21T15:39:44.940Z,16.57
2022-09-21T15:42:20.282Z,17.08
2022-09-21T15:44:51.061Z,16.70
2022-09-21T15:47:23.023Z,17.21
2022-09-21T15:49:52.349Z,16.88
2022-09-21T15:52:28.373Z,16.80
2022-09-21T15:55:00.533Z,17.10
2022-09-21T15:57:39.000Z,17.07
2022-09-21T16:00:22.631Z,16.20
2022-09-21T16:02:57.243Z,15.47
2022-09-21T16:05:25.617Z,15.39
2022-09-21T16:08:06.363Z,15.32
2022-09-21T16:10:44.666Z,15.36
2022-09-21T16:13:36.178Z,15.17
2022-09-21T16:16:07.658Z,15.24
2022-09-21T16:18:48.092Z,15.24
2022-09-21T16:21:23.739Z,15.36
2022-09-21T16:23:55.579Z,15.50
2022-09-21T16:26:27.001Z,15.30
2022-09-21T16:29:16.849Z,15.60
2022-09-21T16:31:50.171Z,15.55
2022-09-21T16:34:36.854Z,15.55
2022-09-21T16:37:25.263Z,15.38
2022-09-21T16:39:54.168Z,15.46
2022-09-21T16:42:23.238Z,15.36
2022-09-21T16:44:51.862Z,15.39
2022-09-21T16:47:25.260Z,15.24
2022-09-21T16:49:56.529Z,15.07
2022-09-21T16:52:25.057Z,14.87
2022-09-21T16:54:54.856Z,14.66
2022-09-21T16:57:22.618Z,14.65
2022-09-21T16:59:51.172Z,14.66
2022-09-21T17:02:20.782Z,14.47
2022-09-21T17:04:49.166Z,14.43
2022-09-21T17:07:18.969Z,14.40
2022-09-21T17:09:48.207Z,14.24
2022-09-21T17:12:18.338Z,14.01
2022-09-21T17:14:47.403Z,13.80
2022-09-21T17:17:19.375Z,13.74
2022-09-21T17:19:50.717Z,13.76
2022-09-21T17:22:19.202Z,13.61
2022-09-21T17:24:52.073Z,13.54
2022-09-21T17:27:22.659Z,13.45
2022-09-21T17:29:51.067Z,13.39
2022-09-21T17:32:21.255Z,13.37
2022-09-21T17:34:56.321Z,13.37
2022-09-21T17:37:25.150Z,13.24
2022-09-21T17:39:53.912Z,13.18
2022-09-21T17:42:25.133Z,13.16
2022-09-21T17:45:11.758Z,13.10
2022-09-21T17:47:41.004Z,13.09
2022-09-21T17:50:23.027Z,13.13
2022-09-21T17:53:09.060Z,13.01
2022-09-21T17:55:37.659Z,12.98
2022-09-21T17:58:24.412Z,12.77
2022-09-21T18:01:01.545Z,12.70
2022-09-21T18:03:31.742Z,12.76
2022-09-21T18:06:02.850Z,12.78
2022-09-21T18:08:33.422Z,12.71
2022-09-21T18:11:16.848Z,12.78
2022-09-21T18:13:55.455Z,12.66
2022-09-21T18:16:28.337Z,12.64
2022-09-21T18:19:21.679Z,12.51
2022-09-21T18:21:56.082Z,12.41
2022-09-21T18:24:31.149Z,12.01
2022-09-21T18:27:00.773Z,12.01
2022-09-21T18:29:40.654Z,11.96
2022-09-21T18:32:41.109Z,11.83
2022-09-21T18:35:19.680Z,11.74
2022-09-21T18:38:02.862Z,11.73
2022-09-21T18:40:45.468Z,11.73
2022-09-21T18:43:26.320Z,11.60
2022-09-21T18:46:01.870Z,11.54
2022-09-21T18:48:41.263Z,11.51
2022-09-21T18:51:20.380Z,11.38
2022-09-21T18:53:52.910Z,11.34
2022-09-21T18:56:21.445Z,11.32
2022-09-21T18:58:50.557Z,11.24
2022-09-21T19:01:21.952Z,11.17
2022-09-21T19:03:50.832Z,11.07
2022-09-21T19:06:32.612Z,11.08
2022-09-21T19:09:15.625Z,11.17
2022-09-21T19:11:50.663Z,11.19
2022-09-21T19:14:23.760Z,11.11
2022-09-21T19:17:07.080Z,10.91
2022-09-21T19:19:45.258Z,10.70
2022-09-21T19:22:16.734Z,10.83
2022-09-21T19:24:57.008Z,10.70
2022-09-21T19:27:36.009Z,10.71
2022-09-21T19:30:09.019Z,10.68
2022-09-21T19:32:43.711Z,10.72
2022-09-21T19:35:21.556Z,10.72
2022-09-21T19:37:50.655Z,10.68
2022-09-21T19:40:22.278Z,10.65
2022-09-21T19:43:00.451Z,10.47
2022-09-21T19:45:36.039Z,10.52
2022-09-21T19:48:09.917Z,10.42
2022-09-21T19:50:41.866Z,10.41
2022-09-21T19:53:29.950Z,10.41
2022-09-21T19:56:18.667Z,10.32
2022-09-21T19:59:05.022Z,9.97
2022-09-21T20:01:36.715Z,10.00
2022-09-21T20:04:06.368Z,10.04
2022-09-21T20:06:43.999Z,10.24
2022-09-21T20:09:18.382Z,10.23
2022-09-21T20:11:52.044Z,10.37
2022-09-21T20:14:29.283Z,10.32
2022-09-21T20:17:00.418Z,10.68
2022-09-21T20:19:39.029Z,10.92
2022-09-21T20:22:12.520Z,10.90
2022-09-21T20:24:49.847Z,11.01
2022-09-21T20:27:32.554Z,10.81
2022-09-21T20:30:00.391Z,10.73
2022-09-21T20:32:28.660Z,10.57
2022-09-21T20:34:57.122Z,10.80
2022-09-21T20:37:26.309Z,10.83
2022-09-21T20:39:54.702Z,10.89
2022-09-21T20:42:26.775Z,11.09
2022-09-21T20:44:55.240Z,11.18
2022-09-21T20:47:23.671Z,11.36
2022-09-21T20:49:52.121Z,11.20
2022-09-21T20:52:20.087Z,11.08
2022-09-21T20:54:49.590Z,11.09
2022-09-21T20:57:18.094Z,10.94
2022-09-21T20:59:47.892Z,10.82
2022-09-21T21:02:16.701Z,10.86
2022-09-21T21:04:44.583Z,10.84
2022-09-21T21:07:12.619Z,10.80
2022-09-21T21:09:40.384Z,10.66
2022-09-21T21:12:09.419Z,10.72
2022-09-21T21:14:37.499Z,10.74
2022-09-21T21:17:07.180Z,10.73
2022-09-21T21:19:35.302Z,10.93
2022-09-21T21:22:03.118Z,10.81
2022-09-21T21:24:43.723Z,10.81
2022-09-21T21:27:14.749Z,10.90
2022-09-21T21:29:43.094Z,10.85
2022-09-21T21:32:13.047Z,11.03
2022-09-21T21:34:41.119Z,11.12
2022-09-21T21:37:09.211Z,11.05
2022-09-21T21:39:37.011Z,10.68
2022-09-21T21:42:05.191Z,10.85
2022-09-21T21:44:32.992Z,10.97
2022-09-21T21:47:20.872Z,11.07
2022-09-21T21:49:50.068Z,11.02
2022-09-21T21:52:17.866Z,11.08
2022-09-21T21:54:45.636Z,11.16
2022-09-21T21:57:14.891Z,11.14
2022-09-21T21:59:43.226Z,11.02
2022-09-21T22:02:11.637Z,10.96
2022-09-21T22:04:39.676Z,10.96
2022-09-21T22:07:08.836Z,11.13
2022-09-21T22:09:36.627Z,11.11
2022-09-21T22:12:04.701Z,11.04
2022-09-21T22:14:32.529Z,11.22
2022-09-21T22:17:01.796Z,11.23
2022-09-21T22:19:29.669Z,11.33
2022-09-21T22:21:57.709Z,11.48
2022-09-21T22:24:26.943Z,11.44
2022-09-21T22:26:54.745Z,11.50
2022-09-21T22:29:22.883Z,11.08
2022-09-21T22:31:51.638Z,11.35
2022-09-21T22:34:20.262Z,11.59
